sensor_id;sensor_type;location;lat;lon;timestamp;P1;durP1;ratioP1;P2;durP2;ratioP2
15526;SDS011;7865;50.918;4.510;2023-02-13T00:02:10;46.47;;;21.97;;
15526;SDS011;7865;50.918;4.510;2023-02-13T00:07:12;46.30;;;21.43;;
15526;SDS011;7865;50.918;4.510;2023-02-13T00:12:14;52.23;;;22.17;;
15526;SDS011;7865;50.918;4.510;2023-02-13T00:17:16;47.20;;;20.80;;
15526;SDS011;7865;50.918;4.510;2023-02-13T00:22:18;46.37;;;22.47;;
15526;SDS011;7865;50.918;4.510;2023-02-13T00:27:20;49.03;;;21.27;;
15526;SDS011;7865;50.918;4.510;2023-02-13T00:32:22;51.13;;;22.47;;
15526;SDS011;7865;50.918;4.510;2023-02-13T00:37:24;54.13;;;22.07;;
15526;SDS011;7865;50.918;4.510;2023-02-13T00:42:26;45.23;;;21.23;;
15526;SDS011;7865;50.918;4.510;2023-02-13T00:47:28;53.73;;;23.17;;
15526;SDS011;7865;50.918;4.510;2023-02-13T00:52:30;56.27;;;23.30;;
15526;SDS011;7865;50.918;4.510;2023-02-13T00:57:32;50.17;;;21.03;;
15526;SDS011;7865;50.918;4.510;2023-02-13T01:02:34;48.87;;;19.70;;
15526;SDS011;7865;50.918;4.510;2023-02-13T01:07:40;52.80;;;21.37;;
15526;SDS011;7865;50.918;4.510;2023-02-13T01:12:42;52.47;;;20.37;;
15526;SDS011;7865;50.918;4.510;2023-02-13T01:17:44;59.67;;;22.27;;
15526;SDS011;7865;50.918;4.510;2023-02-13T01:22:46;53.40;;;21.67;;
15526;SDS011;7865;50.918;4.510;2023-02-13T01:27:48;53.20;;;21.20;;
15526;SDS011;7865;50.918;4.510;2023-02-13T01:32:51;55.70;;;21.67;;
15526;SDS011;7865;50.918;4.510;2023-02-13T01:37:53;50.77;;;21.00;;
15526;SDS011;7865;50.918;4.510;2023-02-13T01:42:55;54.20;;;21.03;;
15526;SDS011;7865;50.918;4.510;2023-02-13T01:48:02;49.90;;;21.53;;
15526;SDS011;7865;50.918;4.510;2023-02-13T01:53:18;52.87;;;21.03;;
15526;SDS011;7865;50.918;4.510;2023-02-13T01:58:27;74.53;;;22.60;;
15526;SDS011;7865;50.918;4.510;2023-02-13T02:03:34;47.43;;;21.33;;
15526;SDS011;7865;50.918;4.510;2023-02-13T02:08:43;61.70;;;23.87;;
15526;SDS011;7865;50.918;4.510;2023-02-13T02:13:53;58.43;;;23.27;;
15526;SDS011;7865;50.918;4.510;2023-02-13T02:19:11;66.67;;;23.37;;
15526;SDS011;7865;50.918;4.510;2023-02-13T02:24:26;55.53;;;21.63;;
15526;SDS011;7865;50.918;4.510;2023-02-13T02:29:43;55.50;;;21.73;;
15526;SDS011;7865;50.918;4.510;2023-02-13T02:40:09;46.57;;;18.33;;
15526;SDS011;7865;50.918;4.510;2023-02-13T02:55:47;23.17;;;12.13;;
15526;SDS011;7865;50.918;4.510;2023-02-13T03:00:56;23.57;;;12.83;;
15526;SDS011;7865;50.918;4.510;2023-02-13T03:06:28;23.43;;;11.07;;
15526;SDS011;7865;50.918;4.510;2023-02-13T03:11:54;18.93;;;10.80;;
15526;SDS011;7865;50.918;4.510;2023-02-13T03:17:16;23.23;;;12.63;;
15526;SDS011;7865;50.918;4.510;2023-02-13T03:27:45;31.97;;;13.00;;
15526;SDS011;7865;50.918;4.510;2023-02-13T03:49:05;47.93;;;15.10;;
15526;SDS011;7865;50.918;4.510;2023-02-13T04:00:09;29.43;;;15.57;;
15526;SDS011;7865;50.918;4.510;2023-02-13T04:05:15;38.53;;;15.80;;
15526;SDS011;7865;50.918;4.510;2023-02-13T04:10:21;30.67;;;15.37;;
15526;SDS011;7865;50.918;4.510;2023-02-13T04:15:33;32.80;;;16.53;;
15526;SDS011;7865;50.918;4.510;2023-02-13T04:20:40;39.60;;;17.10;;
15526;SDS011;7865;50.918;4.510;2023-02-13T04:25:43;29.67;;;13.63;;
15526;SDS011;7865;50.918;4.510;2023-02-13T04:30:49;34.97;;;14.30;;
15526;SDS011;7865;50.918;4.510;2023-02-13T04:35:51;27.67;;;14.67;;
15526;SDS011;7865;50.918;4.510;2023-02-13T04:40:52;32.47;;;14.37;;
15526;SDS011;7865;50.918;4.510;2023-02-13T04:45:54;33.03;;;14.20;;
15526;SDS011;7865;50.918;4.510;2023-02-13T04:50:56;30.33;;;15.83;;
15526;SDS011;7865;50.918;4.510;2023-02-13T04:55:58;26.93;;;14.57;;
15526;SDS011;7865;50.918;4.510;2023-02-13T05:01:00;34.73;;;16.27;;
15526;SDS011;7865;50.918;4.510;2023-02-13T05:06:02;34.73;;;14.53;;
15526;SDS011;7865;50.918;4.510;2023-02-13T05:11:04;30.90;;;14.73;;
15526;SDS011;7865;50.918;4.510;2023-02-13T05:16:07;30.37;;;15.33;;
15526;SDS011;7865;50.918;4.510;2023-02-13T05:21:09;31.13;;;15.07;;
15526;SDS011;7865;50.918;4.510;2023-02-13T05:26:29;27.63;;;14.10;;
15526;SDS011;7865;50.918;4.510;2023-02-13T05:31:31;33.83;;;16.30;;
15526;SDS011;7865;50.918;4.510;2023-02-13T05:36:33;25.67;;;13.93;;
15526;SDS011;7865;50.918;4.510;2023-02-13T05:41:35;29.00;;;14.17;;
15526;SDS011;7865;50.918;4.510;2023-02-13T05:46:38;24.43;;;13.73;;
15526;SDS011;7865;50.918;4.510;2023-02-13T05:51:41;28.23;;;14.97;;
15526;SDS011;7865;50.918;4.510;2023-02-13T05:56:43;25.97;;;12.93;;
15526;SDS011;7865;50.918;4.510;2023-02-13T06:01:46;22.77;;;13.30;;
15526;SDS011;7865;50.918;4.510;2023-02-13T06:06:48;26.17;;;13.33;;
15526;SDS011;7865;50.918;4.510;2023-02-13T06:11:50;23.07;;;14.10;;
15526;SDS011;7865;50.918;4.510;2023-02-13T06:16:52;28.57;;;15.27;;
15526;SDS011;7865;50.918;4.510;2023-02-13T06:21:53;25.20;;;13.27;;
15526;SDS011;7865;50.918;4.510;2023-02-13T06:26:55;25.03;;;13.63;;
15526;SDS011;7865;50.918;4.510;2023-02-13T06:31:58;23.93;;;13.20;;
15526;SDS011;7865;50.918;4.510;2023-02-13T06:37:00;24.63;;;13.80;;
15526;SDS011;7865;50.918;4.510;2023-02-13T06:42:02;26.47;;;13.53;;
15526;SDS011;7865;50.918;4.510;2023-02-13T06:47:04;30.33;;;16.07;;
15526;SDS011;7865;50.918;4.510;2023-02-13T06:52:06;30.77;;;13.83;;
15526;SDS011;7865;50.918;4.510;2023-02-13T06:57:08;28.10;;;14.00;;
15526;SDS011;7865;50.918;4.510;2023-02-13T07:02:10;25.73;;;13.00;;
15526;SDS011;7865;50.918;4.510;2023-02-13T07:07:14;25.87;;;13.27;;
15526;SDS011;7865;50.918;4.510;2023-02-13T07:12:16;27.73;;;14.60;;
15526;SDS011;7865;50.918;4.510;2023-02-13T07:17:18;24.00;;;12.67;;
15526;SDS011;7865;50.918;4.510;2023-02-13T07:22:20;22.30;;;12.37;;
15526;SDS011;7865;50.918;4.510;2023-02-13T07:27:22;23.67;;;12.77;;
15526;SDS011;7865;50.918;4.510;2023-02-13T07:32:24;26.97;;;12.33;;
15526;SDS011;7865;50.918;4.510;2023-02-13T07:37:26;23.40;;;12.17;;
15526;SDS011;7865;50.918;4.510;2023-02-13T07:42:31;29.90;;;13.87;;
15526;SDS011;7865;50.918;4.510;2023-02-13T07:47:34;27.93;;;14.40;;
15526;SDS011;7865;50.918;4.510;2023-02-13T07:52:37;29.80;;;13.80;;
15526;SDS011;7865;50.918;4.510;2023-02-13T07:57:39;27.37;;;13.37;;
15526;SDS011;7865;50.918;4.510;2023-02-13T08:02:41;27.47;;;14.60;;
15526;SDS011;7865;50.918;4.510;2023-02-13T08:07:43;33.17;;;15.47;;
15526;SDS011;7865;50.918;4.510;2023-02-13T08:12:45;31.43;;;14.33;;
15526;SDS011;7865;50.918;4.510;2023-02-13T08:17:47;27.87;;;14.03;;
15526;SDS011;7865;50.918;4.510;2023-02-13T08:22:49;33.07;;;16.03;;
15526;SDS011;7865;50.918;4.510;2023-02-13T08:27:51;39.97;;;18.10;;
15526;SDS011;7865;50.918;4.510;2023-02-13T08:32:53;36.93;;;17.93;;
15526;SDS011;7865;50.918;4.510;2023-02-13T08:37:55;36.97;;;17.47;;
15526;SDS011;7865;50.918;4.510;2023-02-13T08:42:59;34.30;;;16.83;;
15526;SDS011;7865;50.918;4.510;2023-02-13T08:48:05;31.37;;;18.80;;
15526;SDS011;7865;50.918;4.510;2023-02-13T08:53:07;74.13;;;27.50;;
15526;SDS011;7865;50.918;4.510;2023-02-13T08:58:09;71.87;;;29.87;;
15526;SDS011;7865;50.918;4.510;2023-02-13T09:03:11;60.13;;;29.63;;
15526;SDS011;7865;50.918;4.510;2023-02-13T09:08:13;49.50;;;25.77;;
15526;SDS011;7865;50.918;4.510;2023-02-13T09:13:18;39.03;;;22.30;;
15526;SDS011;7865;50.918;4.510;2023-02-13T09:18:20;33.17;;;19.97;;
15526;SDS011;7865;50.918;4.510;2023-02-13T09:23:22;34.87;;;21.87;;
15526;SDS011;7865;50.918;4.510;2023-02-13T09:28:23;29.23;;;18.07;;
15526;SDS011;7865;50.918;4.510;2023-02-13T09:33:25;31.37;;;17.97;;
15526;SDS011;7865;50.918;4.510;2023-02-13T09:38:27;28.10;;;16.77;;
15526;SDS011;7865;50.918;4.510;2023-02-13T09:43:34;23.93;;;15.07;;
15526;SDS011;7865;50.918;4.510;2023-02-13T09:48:42;22.20;;;14.90;;
15526;SDS011;7865;50.918;4.510;2023-02-13T09:53:58;21.83;;;13.63;;
15526;SDS011;7865;50.918;4.510;2023-02-13T10:10:01;21.97;;;14.07;;
15526;SDS011;7865;50.918;4.510;2023-02-13T10:15:16;20.73;;;12.77;;
15526;SDS011;7865;50.918;4.510;2023-02-13T10:20:41;21.73;;;12.93;;
15526;SDS011;7865;50.918;4.510;2023-02-13T10:25:50;22.53;;;13.10;;
15526;SDS011;7865;50.918;4.510;2023-02-13T10:30:58;20.03;;;12.73;;
15526;SDS011;7865;50.918;4.510;2023-02-13T10:36:10;19.90;;;12.63;;
15526;SDS011;7865;50.918;4.510;2023-02-13T11:02:29;22.97;;;12.27;;
15526;SDS011;7865;50.918;4.510;2023-02-13T11:07:35;19.70;;;12.70;;
15526;SDS011;7865;50.918;4.510;2023-02-13T11:12:40;16.50;;;11.47;;
15526;SDS011;7865;50.918;4.510;2023-02-13T11:17:41;17.73;;;11.40;;
15526;SDS011;7865;50.918;4.510;2023-02-13T11:22:44;16.52;;;11.20;;
15526;SDS011;7865;50.918;4.510;2023-02-13T11:27:47;19.60;;;11.20;;
15526;SDS011;7865;50.918;4.510;2023-02-13T11:32:58;14.52;;;10.45;;
15526;SDS011;7865;50.918;4.510;2023-02-13T11:43:16;18.40;;;10.52;;
15526;SDS011;7865;50.918;4.510;2023-02-13T11:48:22;13.68;;;8.88;;
15526;SDS011;7865;50.918;4.510;2023-02-13T11:53:25;15.82;;;10.60;;
15526;SDS011;7865;50.918;4.510;2023-02-13T11:58:30;16.35;;;10.23;;
15526;SDS011;7865;50.918;4.510;2023-02-13T12:03:33;14.27;;;10.30;;
15526;SDS011;7865;50.918;4.510;2023-02-13T12:08:35;14.43;;;10.07;;
15526;SDS011;7865;50.918;4.510;2023-02-13T12:13:39;14.68;;;10.20;;
15526;SDS011;7865;50.918;4.510;2023-02-13T12:18:42;15.57;;;9.45;;
15526;SDS011;7865;50.918;4.510;2023-02-13T12:45:52;14.27;;;9.27;;
15526;SDS011;7865;50.918;4.510;2023-02-13T12:56:41;14.35;;;8.45;;
15526;SDS011;7865;50.918;4.510;2023-02-13T13:02:03;11.63;;;8.32;;
15526;SDS011;7865;50.918;4.510;2023-02-13T13:07:47;11.95;;;8.55;;
15526;SDS011;7865;50.918;4.510;2023-02-13T13:23:48;15.32;;;9.88;;
15526;SDS011;7865;50.918;4.510;2023-02-13T13:28:54;13.95;;;9.02;;
15526;SDS011;7865;50.918;4.510;2023-02-13T13:34:01;14.15;;;9.20;;
15526;SDS011;7865;50.918;4.510;2023-02-13T13:39:22;13.07;;;8.73;;
15526;SDS011;7865;50.918;4.510;2023-02-13T13:44:39;13.40;;;9.10;;
15526;SDS011;7865;50.918;4.510;2023-02-13T13:50:01;11.00;;;7.88;;
15526;SDS011;7865;50.918;4.510;2023-02-13T13:55:08;12.60;;;8.07;;
15526;SDS011;7865;50.918;4.510;2023-02-13T14:01:09;12.38;;;8.20;;
15526;SDS011;7865;50.918;4.510;2023-02-13T14:11:46;12.88;;;8.60;;
15526;SDS011;7865;50.918;4.510;2023-02-13T14:16:48;13.05;;;8.85;;
15526;SDS011;7865;50.918;4.510;2023-02-13T14:21:50;10.90;;;8.23;;
15526;SDS011;7865;50.918;4.510;2023-02-13T14:26:53;12.85;;;9.07;;
15526;SDS011;7865;50.918;4.510;2023-02-13T14:32:16;11.18;;;8.10;;
15526;SDS011;7865;50.918;4.510;2023-02-13T14:37:34;13.07;;;8.95;;
15526;SDS011;7865;50.918;4.510;2023-02-13T14:42:41;12.07;;;8.32;;
15526;SDS011;7865;50.918;4.510;2023-02-13T14:47:47;10.52;;;7.93;;
15526;SDS011;7865;50.918;4.510;2023-02-13T14:52:54;12.77;;;8.07;;
15526;SDS011;7865;50.918;4.510;2023-02-13T15:03:43;12.65;;;8.48;;
15526;SDS011;7865;50.918;4.510;2023-02-13T15:08:49;12.65;;;7.68;;
15526;SDS011;7865;50.918;4.510;2023-02-13T15:13:53;8.45;;;6.35;;
15526;SDS011;7865;50.918;4.510;2023-02-13T15:18:55;10.77;;;7.95;;
15526;SDS011;7865;50.918;4.510;2023-02-13T15:23:57;9.23;;;6.32;;
15526;SDS011;7865;50.918;4.510;2023-02-13T15:29:00;8.95;;;6.82;;
15526;SDS011;7865;50.918;4.510;2023-02-13T15:34:29;11.15;;;7.18;;
15526;SDS011;7865;50.918;4.510;2023-02-13T15:39:34;10.40;;;6.57;;
15526;SDS011;7865;50.918;4.510;2023-02-13T15:44:37;9.98;;;6.53;;
15526;SDS011;7865;50.918;4.510;2023-02-13T15:49:44;8.38;;;6.20;;
15526;SDS011;7865;50.918;4.510;2023-02-13T15:54:48;10.77;;;5.90;;
15526;SDS011;7865;50.918;4.510;2023-02-13T15:59:55;7.97;;;6.00;;
15526;SDS011;7865;50.918;4.510;2023-02-13T16:04:59;10.83;;;6.37;;
15526;SDS011;7865;50.918;4.510;2023-02-13T16:15:27;9.07;;;5.70;;
15526;SDS011;7865;50.918;4.510;2023-02-13T16:20:31;8.83;;;5.57;;
15526;SDS011;7865;50.918;4.510;2023-02-13T16:25:38;10.63;;;5.67;;
15526;SDS011;7865;50.918;4.510;2023-02-13T16:30:42;10.30;;;5.70;;
15526;SDS011;7865;50.918;4.510;2023-02-13T16:40:59;11.53;;;5.97;;
15526;SDS011;7865;50.918;4.510;2023-02-13T16:46:16;8.83;;;5.47;;
15526;SDS011;7865;50.918;4.510;2023-02-13T16:51:21;9.87;;;5.63;;
15526;SDS011;7865;50.918;4.510;2023-02-13T16:56:25;12.43;;;6.50;;
15526;SDS011;7865;50.918;4.510;2023-02-13T17:01:27;13.33;;;6.47;;
15526;SDS011;7865;50.918;4.510;2023-02-13T17:06:29;10.30;;;5.83;;
15526;SDS011;7865;50.918;4.510;2023-02-13T17:11:31;13.80;;;7.57;;
15526;SDS011;7865;50.918;4.510;2023-02-13T17:16:33;15.70;;;8.80;;
15526;SDS011;7865;50.918;4.510;2023-02-13T17:21:35;12.27;;;7.90;;
15526;SDS011;7865;50.918;4.510;2023-02-13T17:26:37;12.07;;;7.47;;
15526;SDS011;7865;50.918;4.510;2023-02-13T17:31:39;11.67;;;7.07;;
15526;SDS011;7865;50.918;4.510;2023-02-13T17:36:41;12.93;;;6.70;;
15526;SDS011;7865;50.918;4.510;2023-02-13T17:41:43;15.00;;;8.43;;
15526;SDS011;7865;50.918;4.510;2023-02-13T17:46:45;12.37;;;8.00;;
15526;SDS011;7865;50.918;4.510;2023-02-13T17:51:47;21.70;;;12.33;;
15526;SDS011;7865;50.918;4.510;2023-02-13T17:56:49;21.83;;;12.47;;
15526;SDS011;7865;50.918;4.510;2023-02-13T18:01:51;17.63;;;11.57;;
15526;SDS011;7865;50.918;4.510;2023-02-13T18:06:53;17.97;;;10.93;;
15526;SDS011;7865;50.918;4.510;2023-02-13T18:11:55;17.47;;;9.83;;
15526;SDS011;7865;50.918;4.510;2023-02-13T18:17:06;16.00;;;9.93;;
15526;SDS011;7865;50.918;4.510;2023-02-13T18:22:08;16.50;;;9.20;;
15526;SDS011;7865;50.918;4.510;2023-02-13T18:27:11;19.93;;;10.47;;
15526;SDS011;7865;50.918;4.510;2023-02-13T18:32:13;18.10;;;11.60;;
15526;SDS011;7865;50.918;4.510;2023-02-13T18:37:15;22.60;;;12.80;;
15526;SDS011;7865;50.918;4.510;2023-02-13T18:42:17;21.97;;;13.00;;
15526;SDS011;7865;50.918;4.510;2023-02-13T18:47:19;19.93;;;10.33;;
15526;SDS011;7865;50.918;4.510;2023-02-13T18:52:21;21.80;;;11.70;;
15526;SDS011;7865;50.918;4.510;2023-02-13T18:57:23;21.40;;;11.87;;
15526;SDS011;7865;50.918;4.510;2023-02-13T19:02:25;16.80;;;11.63;;
15526;SDS011;7865;50.918;4.510;2023-02-13T19:07:27;21.67;;;11.73;;
15526;SDS011;7865;50.918;4.510;2023-02-13T19:12:29;20.17;;;9.77;;
15526;SDS011;7865;50.918;4.510;2023-02-13T19:17:33;18.20;;;11.40;;
15526;SDS011;7865;50.918;4.510;2023-02-13T19:22:35;18.83;;;11.37;;
15526;SDS011;7865;50.918;4.510;2023-02-13T19:27:37;17.37;;;10.87;;
15526;SDS011;7865;50.918;4.510;2023-02-13T19:32:39;19.00;;;11.00;;
15526;SDS011;7865;50.918;4.510;2023-02-13T19:37:41;16.80;;;11.10;;
15526;SDS011;7865;50.918;4.510;2023-02-13T19:42:45;18.83;;;11.77;;
15526;SDS011;7865;50.918;4.510;2023-02-13T19:47:47;22.57;;;11.13;;
15526;SDS011;7865;50.918;4.510;2023-02-13T19:52:49;33.53;;;16.63;;
15526;SDS011;7865;50.918;4.510;2023-02-13T19:57:51;24.37;;;14.93;;
15526;SDS011;7865;50.918;4.510;2023-02-13T20:02:58;20.47;;;13.13;;
15526;SDS011;7865;50.918;4.510;2023-02-13T20:08:01;24.80;;;12.67;;
15526;SDS011;7865;50.918;4.510;2023-02-13T20:13:02;29.70;;;14.40;;
15526;SDS011;7865;50.918;4.510;2023-02-13T20:18:05;28.27;;;16.53;;
15526;SDS011;7865;50.918;4.510;2023-02-13T20:23:07;28.37;;;14.07;;
15526;SDS011;7865;50.918;4.510;2023-02-13T20:28:09;24.57;;;14.33;;
15526;SDS011;7865;50.918;4.510;2023-02-13T20:33:12;24.53;;;14.33;;
15526;SDS011;7865;50.918;4.510;2023-02-13T20:38:14;23.73;;;13.77;;
15526;SDS011;7865;50.918;4.510;2023-02-13T20:43:16;22.37;;;13.73;;
15526;SDS011;7865;50.918;4.510;2023-02-13T20:48:21;21.03;;;12.10;;
15526;SDS011;7865;50.918;4.510;2023-02-13T20:53:22;21.07;;;13.00;;
15526;SDS011;7865;50.918;4.510;2023-02-13T20:58:24;27.43;;;13.63;;
15526;SDS011;7865;50.918;4.510;2023-02-13T21:03:26;19.17;;;11.97;;
15526;SDS011;7865;50.918;4.510;2023-02-13T21:08:28;26.20;;;12.50;;
15526;SDS011;7865;50.918;4.510;2023-02-13T21:13:30;24.33;;;13.40;;
15526;SDS011;7865;50.918;4.510;2023-02-13T21:18:36;27.20;;;15.17;;
15526;SDS011;7865;50.918;4.510;2023-02-13T21:23:39;26.97;;;15.40;;
15526;SDS011;7865;50.918;4.510;2023-02-13T21:28:42;24.47;;;15.03;;
15526;SDS011;7865;50.918;4.510;2023-02-13T21:33:46;28.67;;;15.57;;
15526;SDS011;7865;50.918;4.510;2023-02-13T21:38:48;26.57;;;15.70;;
15526;SDS011;7865;50.918;4.510;2023-02-13T21:43:50;31.40;;;16.50;;
15526;SDS011;7865;50.918;4.510;2023-02-13T21:48:53;25.53;;;16.27;;
15526;SDS011;7865;50.918;4.510;2023-02-13T21:53:57;29.20;;;16.47;;
15526;SDS011;7865;50.918;4.510;2023-02-13T21:58:59;31.63;;;17.17;;
15526;SDS011;7865;50.918;4.510;2023-02-13T22:04:03;32.87;;;18.23;;
15526;SDS011;7865;50.918;4.510;2023-02-13T22:09:08;27.70;;;16.47;;
15526;SDS011;7865;50.918;4.510;2023-02-13T22:14:15;29.40;;;16.73;;
15526;SDS011;7865;50.918;4.510;2023-02-13T22:19:18;32.17;;;17.27;;
15526;SDS011;7865;50.918;4.510;2023-02-13T22:24:20;32.27;;;17.67;;
15526;SDS011;7865;50.918;4.510;2023-02-13T22:29:22;38.03;;;17.67;;
15526;SDS011;7865;50.918;4.510;2023-02-13T22:34:26;28.83;;;16.30;;
15526;SDS011;7865;50.918;4.510;2023-02-13T22:39:28;35.50;;;17.70;;
15526;SDS011;7865;50.918;4.510;2023-02-13T22:44:30;36.53;;;17.53;;
15526;SDS011;7865;50.918;4.510;2023-02-13T22:49:32;29.03;;;15.93;;
15526;SDS011;7865;50.918;4.510;2023-02-13T22:54:34;34.40;;;16.73;;
15526;SDS011;7865;50.918;4.510;2023-02-13T22:59:36;28.10;;;14.83;;
15526;SDS011;7865;50.918;4.510;2023-02-13T23:04:40;29.00;;;14.30;;
15526;SDS011;7865;50.918;4.510;2023-02-13T23:09:46;35.13;;;17.73;;
15526;SDS011;7865;50.918;4.510;2023-02-13T23:14:48;27.03;;;16.23;;
15526;SDS011;7865;50.918;4.510;2023-02-13T23:19:50;34.17;;;17.27;;
15526;SDS011;7865;50.918;4.510;2023-02-13T23:24:52;34.60;;;17.33;;
15526;SDS011;7865;50.918;4.510;2023-02-13T23:29:54;28.03;;;16.20;;
15526;SDS011;7865;50.918;4.510;2023-02-13T23:34:56;27.10;;;16.23;;
15526;SDS011;7865;50.918;4.510;2023-02-13T23:39:58;35.47;;;17.17;;
15526;SDS011;7865;50.918;4.510;2023-02-13T23:45:00;28.43;;;16.10;;
15526;SDS011;7865;50.918;4.510;2023-02-13T23:50:02;34.70;;;16.20;;
15526;SDS011;7865;50.918;4.510;2023-02-13T23:55:05;29.90;;;16.33;;
